Time;durP1;ratioP1;P1;durP2;ratioP2;P2;SDS_P1;SDS_P2;PMS_P1;PMS_P2;Temp;Humidity;BMP_temperature;BMP_pressure;BME280_temperature;BME280_humidity;BME280_pressure;Samples;Min_cycle;Max_cycle;Signal;HPM_P1;HPM_P2
2024/01/24 00:02:08;;;;;;;15.43;4.30;;;;;;;;;;4962777;29;20074;-61
2024/01/24 00:04:34;;;;;;;6.37;3.37;;;;;;;;;;4961047;29;20278;-60
2024/01/24 00:06:59;;;;;;;7.28;4.43;;;;;;;;;;4958599;29;20051;-60
2024/01/24 00:09:24;;;;;;;11.93;4.00;;;;;;;;;;4950103;29;20056;-60
2024/01/24 00:11:50;;;;;;;5.07;3.13;;;;;;;;;;4962375;29;20039;-63
2024/01/24 00:14:15;;;;;;;10.13;3.20;;;;;;;;;;4957304;29;20110;-61
2024/01/24 00:16:41;;;;;;;5.05;3.08;;;;;;;;;;4961863;29;20042;-61
2024/01/24 00:19:07;;;;;;;8.15;3.08;;;;;;;;;;4956864;29;20093;-61
2024/01/24 00:21:32;;;;;;;7.00;2.07;;;;;;;;;;4961561;29;20039;-61
2024/01/24 00:23:58;;;;;;;5.77;2.80;;;;;;;;;;4956924;29;20038;-60
2024/01/24 00:26:24;;;;;;;7.73;2.60;;;;;;;;;;4959466;29;20125;-61
2024/01/24 00:28:50;;;;;;;10.90;2.85;;;;;;;;;;4956739;29;20286;-61
2024/01/24 00:31:15;;;;;;;6.13;2.33;;;;;;;;;;4964326;29;20032;-61
2024/01/24 00:33:41;;;;;;;4.13;1.90;;;;;;;;;;4940127;29;20043;-61
2024/01/24 00:36:06;;;;;;;5.05;2.30;;;;;;;;;;4939983;29;20042;-61
2024/01/24 00:38:31;;;;;;;5.70;2.13;;;;;;;;;;4968213;29;20046;-62
2024/01/24 00:40:57;;;;;;;4.30;2.20;;;;;;;;;;4965853;29;20031;-63
2024/01/24 00:43:23;;;;;;;6.22;2.58;;;;;;;;;;4956962;29;20051;-61
2024/01/24 00:45:48;;;;;;;5.63;2.47;;;;;;;;;;4959894;29;20062;-61
2024/01/24 00:48:13;;;;;;;5.27;2.47;;;;;;;;;;4957705;29;20087;-60
2024/01/24 00:50:39;;;;;;;5.63;2.28;;;;;;;;;;4963386;29;20467;-61
2024/01/24 00:53:05;;;;;;;6.90;2.57;;;;;;;;;;4956414;29;20040;-60
2024/01/24 00:55:30;;;;;;;4.50;2.17;;;;;;;;;;4968139;29;20035;-61
2024/01/24 00:57:56;;;;;;;5.72;2.13;;;;;;;;;;4961967;29;20040;-61
2024/01/24 01:00:22;;;;;;;5.78;2.22;;;;;;;;;;4936731;29;20097;-61
2024/01/24 01:02:48;;;;;;;9.40;2.45;;;;;;;;;;4955843;29;20188;-60
2024/01/24 01:05:13;;;;;;;2.67;1.90;;;;;;;;;;4939597;29;20028;-60
2024/01/24 01:07:39;;;;;;;3.92;2.28;;;;;;;;;;4959021;29;20299;-61
2024/01/24 01:10:05;;;;;;;5.10;2.20;;;;;;;;;;4957629;29;20043;-62
2024/01/24 01:12:31;;;;;;;3.93;2.83;;;;;;;;;;4956983;29;20032;-60
2024/01/24 01:14:56;;;;;;;9.43;3.43;;;;;;;;;;4939617;29;20345;-61
2024/01/24 01:17:22;;;;;;;4.03;2.20;;;;;;;;;;4962889;29;20282;-61
2024/01/24 01:19:47;;;;;;;4.93;2.45;;;;;;;;;;4957877;29;20099;-61
2024/01/24 01:22:13;;;;;;;4.30;2.50;;;;;;;;;;4966039;29;20087;-61
2024/01/24 01:24:38;;;;;;;4.57;2.78;;;;;;;;;;4959936;29;20023;-60
2024/01/24 01:27:04;;;;;;;7.17;3.10;;;;;;;;;;4966244;28;20032;-60
2024/01/24 01:29:30;;;;;;;5.93;2.92;;;;;;;;;;4960797;29;20043;-60
2024/01/24 01:31:55;;;;;;;6.70;3.03;;;;;;;;;;4968405;29;20032;-61
2024/01/24 01:34:21;;;;;;;5.93;3.57;;;;;;;;;;4959346;29;20058;-61
2024/01/24 01:36:46;;;;;;;5.93;3.63;;;;;;;;;;4959087;29;20269;-62
2024/01/24 01:39:12;;;;;;;5.80;3.78;;;;;;;;;;4959711;29;20270;-61
2024/01/24 01:41:38;;;;;;;5.55;3.80;;;;;;;;;;4967204;29;20036;-61
2024/01/24 01:44:03;;;;;;;9.25;4.78;;;;;;;;;;4959070;29;20040;-63
2024/01/24 01:46:29;;;;;;;6.47;4.38;;;;;;;;;;4961616;29;20028;-63
2024/01/24 01:48:57;;;;;;;7.20;4.20;;;;;;;;;;4960611;29;20035;-63
2024/01/24 01:51:23;;;;;;;6.03;3.70;;;;;;;;;;4963983;29;20043;-62
2024/01/24 01:53:49;;;;;;;10.67;4.40;;;;;;;;;;4959222;29;20270;-63
2024/01/24 01:56:18;;;;;;;6.72;4.35;;;;;;;;;;4960211;29;20035;-62
2024/01/24 01:58:44;;;;;;;6.70;4.13;;;;;;;;;;4959196;29;20050;-62
2024/01/24 02:01:10;;;;;;;;;;;;;;;;;;4944226;29;20262;-62
2024/01/24 02:03:42;;;;;;;5.80;4.10;;;;;;;;;;4954958;29;19911;-63
2024/01/24 02:06:07;;;;;;;5.35;3.63;;;;;;;;;;4962118;29;20305;-63
2024/01/24 02:08:35;;;;;;;8.57;4.53;;;;;;;;;;4974662;29;20051;-63
2024/01/24 02:11:00;;;;;;;5.53;3.83;;;;;;;;;;4976399;29;20031;-62
2024/01/24 02:13:32;;;;;;;5.68;3.63;;;;;;;;;;4964016;29;20262;-63
2024/01/24 02:15:58;;;;;;;6.00;3.43;;;;;;;;;;4958780;29;20031;-62
2024/01/24 02:18:23;;;;;;;4.73;3.40;;;;;;;;;;4965107;29;20284;-62
2024/01/24 02:20:49;;;;;;;5.20;3.50;;;;;;;;;;4962146;29;20260;-63
2024/01/24 02:23:17;;;;;;;5.75;3.25;;;;;;;;;;4963017;29;20031;-62
2024/01/24 02:25:42;;;;;;;4.37;2.70;;;;;;;;;;4958695;29;20028;-63
2024/01/24 02:28:08;;;;;;;4.00;2.47;;;;;;;;;;4962701;29;20443;-62
2024/01/24 02:30:33;;;;;;;4.93;2.63;;;;;;;;;;4958029;29;20290;-63
2024/01/24 02:32:59;;;;;;;3.80;2.60;;;;;;;;;;4962531;29;20262;-62
2024/01/24 02:35:27;;;;;;;4.18;2.47;;;;;;;;;;4958968;29;20043;-64
2024/01/24 02:37:53;;;;;;;3.97;2.70;;;;;;;;;;4972360;29;20088;-63
2024/01/24 02:40:19;;;;;;;5.55;3.20;;;;;;;;;;4958772;29;20326;-63
2024/01/24 02:42:44;;;;;;;7.80;3.27;;;;;;;;;;4960435;29;20043;-63
2024/01/24 02:45:10;;;;;;;4.33;2.80;;;;;;;;;;4958669;29;20262;-63
2024/01/24 02:47:35;;;;;;;7.43;2.40;;;;;;;;;;4969614;29;20035;-62
2024/01/24 02:50:03;;;;;;;6.13;2.17;;;;;;;;;;4968776;29;20094;-62
2024/01/24 02:52:28;;;;;;;5.03;2.13;;;;;;;;;;4969918;29;20039;-63
2024/01/24 02:54:54;;;;;;;4.53;2.27;;;;;;;;;;4958243;29;20268;-64
2024/01/24 02:57:20;;;;;;;6.07;2.20;;;;;;;;;;4963648;29;20333;-62
2024/01/24 02:59:45;;;;;;;8.27;2.77;;;;;;;;;;4965072;29;20274;-62
2024/01/24 03:02:10;;;;;;;4.80;2.47;;;;;;;;;;4966613;29;20285;-62
2024/01/24 03:04:37;;;;;;;7.20;2.83;;;;;;;;;;4958250;29;20040;-63
2024/01/24 03:07:03;;;;;;;8.35;2.47;;;;;;;;;;4957844;29;20067;-63
2024/01/24 03:09:28;;;;;;;5.30;2.85;;;;;;;;;;4961705;29;20036;-62
2024/01/24 03:11:54;;;;;;;7.97;2.65;;;;;;;;;;4963365;29;20116;-62
2024/01/24 03:14:21;;;;;;;16.45;2.85;;;;;;;;;;4958346;29;20027;-61
2024/01/24 03:16:46;;;;;;;9.87;2.70;;;;;;;;;;4957460;29;20050;-63
2024/01/24 03:19:12;;;;;;;8.90;2.53;;;;;;;;;;4958354;29;20274;-62
2024/01/24 03:21:37;;;;;;;11.55;1.90;;;;;;;;;;4959648;29;20031;-62
2024/01/24 03:24:02;;;;;;;16.63;2.50;;;;;;;;;;4958157;29;20036;-61
2024/01/24 03:26:28;;;;;;;7.53;1.88;;;;;;;;;;4957942;29;20031;-62
2024/01/24 03:28:53;;;;;;;15.10;2.03;;;;;;;;;;4961262;29;20098;-61
2024/01/24 03:31:19;;;;;;;10.73;2.78;;;;;;;;;;4963682;29;20031;-66
2024/01/24 03:33:44;;;;;;;6.80;1.73;;;;;;;;;;4969098;29;20063;-60
2024/01/24 03:36:10;;;;;;;9.93;1.77;;;;;;;;;;4957668;29;20063;-60
2024/01/24 03:38:35;;;;;;;15.13;3.10;;;;;;;;;;4934899;29;20500;-63
2024/01/24 03:41:01;;;;;;;8.27;1.83;;;;;;;;;;4963693;29;20055;-61
2024/01/24 03:43:26;;;;;;;14.05;2.50;;;;;;;;;;4965062;29;20038;-60
2024/01/24 03:45:52;;;;;;;11.90;2.42;;;;;;;;;;4957398;29;20023;-60
2024/01/24 03:48:18;;;;;;;8.55;1.85;;;;;;;;;;4957164;29;20126;-61
2024/01/24 03:50:44;;;;;;;13.93;2.33;;;;;;;;;;4943409;29;20045;-61
2024/01/24 03:53:09;;;;;;;11.50;2.90;;;;;;;;;;4961804;29;20286;-62
2024/01/24 03:55:35;;;;;;;16.83;2.63;;;;;;;;;;4957128;29;20046;-62
2024/01/24 03:58:00;;;;;;;19.63;3.53;;;;;;;;;;4962367;29;20038;-61
2024/01/24 04:00:27;;;;;;;26.60;4.10;;;;;;;;;;4964783;29;20055;-61
2024/01/24 04:02:53;;;;;;;22.47;3.83;;;;;;;;;;4965150;29;20258;-61
2024/01/24 04:05:19;;;;;;;22.13;4.50;;;;;;;;;;4957368;29;20314;-60
2024/01/24 04:07:44;;;;;;;18.17;3.83;;;;;;;;;;4944825;29;20107;-62
2024/01/24 04:10:10;;;;;;;17.90;3.55;;;;;;;;;;4961276;29;20031;-63
2024/01/24 04:12:35;;;;;;;25.27;4.37;;;;;;;;;;4945019;29;20038;-61
2024/01/24 04:15:01;;;;;;;18.13;2.87;;;;;;;;;;4956719;29;20274;-62
2024/01/24 04:17:26;;;;;;;21.48;3.55;;;;;;;;;;4956621;29;20044;-61
2024/01/24 04:19:52;;;;;;;35.40;5.28;;;;;;;;;;4968769;29;20055;-61
2024/01/24 04:22:17;;;;;;;27.23;4.50;;;;;;;;;;4957603;29;20043;-62
2024/01/24 04:24:44;;;;;;;35.00;5.07;;;;;;;;;;4957560;29;20039;-61
2024/01/24 04:27:09;;;;;;;21.15;3.90;;;;;;;;;;4956821;29;20043;-61
2024/01/24 04:29:35;;;;;;;29.00;4.22;;;;;;;;;;4958738;29;20039;-61
2024/01/24 04:32:00;;;;;;;30.60;4.83;;;;;;;;;;4964170;29;20066;-61
2024/01/24 04:34:26;;;;;;;31.05;4.82;;;;;;;;;;4968521;29;20031;-62
2024/01/24 04:36:54;;;;;;;35.63;6.15;;;;;;;;;;4957303;29;20036;-60
2024/01/24 04:39:21;;;;;;;25.63;5.00;;;;;;;;;;4968053;29;20042;-61
2024/01/24 04:41:47;;;;;;;25.52;4.88;;;;;;;;;;4968723;29;20257;-61
2024/01/24 04:44:13;;;;;;;25.30;5.13;;;;;;;;;;4956658;29;20040;-61
2024/01/24 04:46:38;;;;;;;26.58;4.65;;;;;;;;;;4944111;29;20031;-61
2024/01/24 04:49:04;;;;;;;26.37;4.70;;;;;;;;;;4966920;29;20027;-60
2024/01/24 04:51:29;;;;;;;34.20;5.53;;;;;;;;;;4965592;29;20032;-60
2024/01/24 04:53:55;;;;;;;34.10;5.80;;;;;;;;;;4967185;28;20067;-61
2024/01/24 04:56:21;;;;;;;36.40;6.07;;;;;;;;;;4960219;29;20281;-61
2024/01/24 04:58:46;;;;;;;42.08;6.57;;;;;;;;;;4960079;29;20290;-61
2024/01/24 05:01:11;;;;;;;30.90;4.70;;;;;;;;;;4966111;29;20027;-61
2024/01/24 05:03:37;;;;;;;35.40;6.68;;;;;;;;;;4967288;29;20071;-61
2024/01/24 05:06:04;;;;;;;38.75;6.47;;;;;;;;;;4960644;29;20034;-60
2024/01/24 05:08:29;;;;;;;26.13;5.32;;;;;;;;;;4961232;29;20032;-60
2024/01/24 05:10:55;;;;;;;35.95;6.00;;;;;;;;;;4963516;29;20024;-61
2024/01/24 05:13:20;;;;;;;40.63;6.20;;;;;;;;;;4960220;29;20036;-61
2024/01/24 05:15:46;;;;;;;33.58;5.35;;;;;;;;;;4960140;29;20059;-61
2024/01/24 05:18:11;;;;;;;29.17;4.93;;;;;;;;;;4960434;29;20040;-61
2024/01/24 05:20:37;;;;;;;37.78;7.30;;;;;;;;;;4965009;29;20047;-60
2024/01/24 05:23:03;;;;;;;37.35;7.07;;;;;;;;;;4968128;29;20032;-62
2024/01/24 05:25:29;;;;;;;43.75;6.40;;;;;;;;;;4959718;29;20043;-63
2024/01/24 05:27:55;;;;;;;;;;;;;;;;;;4960195;29;20035;-61
2024/01/24 05:30:20;;;;;;;39.97;5.70;;;;;;;;;;4961658;29;19935;-61
2024/01/24 05:32:46;;;;;;;32.47;6.07;;;;;;;;;;4959867;29;20059;-60
2024/01/24 05:35:11;;;;;;;30.07;5.83;;;;;;;;;;4966642;29;20262;-61
2024/01/24 05:37:37;;;;;;;40.43;7.27;;;;;;;;;;4964824;29;20118;-62
2024/01/24 05:40:03;;;;;;;44.00;6.72;;;;;;;;;;4964452;29;20027;-61
2024/01/24 05:42:29;;;;;;;38.40;6.33;;;;;;;;;;4965497;29;20036;-61
2024/01/24 05:44:55;;;;;;;33.13;6.87;;;;;;;;;;4967929;29;20262;-61
2024/01/24 05:47:20;;;;;;;35.27;6.00;;;;;;;;;;4959687;29;20329;-61
2024/01/24 05:49:47;;;;;;;53.63;7.07;;;;;;;;;;4960662;29;20277;-61
2024/01/24 05:52:13;;;;;;;36.63;6.97;;;;;;;;;;4961907;29;20306;-61
2024/01/24 05:54:40;;;;;;;39.80;6.03;;;;;;;;;;4964700;29;20289;-61
2024/01/24 05:57:05;;;;;;;;;;;;;;;;;;4959664;29;20287;-61
2024/01/24 05:59:30;;;;;;;46.60;7.53;;;;;;;;;;4962517;29;19911;-61
2024/01/24 06:01:56;;;;;;;39.03;7.07;;;;;;;;;;4977729;29;20046;-60
2024/01/24 06:04:21;;;;;;;40.05;6.03;;;;;;;;;;4962382;29;20042;-60
2024/01/24 06:06:47;;;;;;;49.88;9.38;;;;;;;;;;4959009;29;20038;-59
2024/01/24 06:09:12;;;;;;;40.55;5.85;;;;;;;;;;4961267;29;20070;-60
2024/01/24 06:11:38;;;;;;;45.08;7.93;;;;;;;;;;4949874;29;20027;-62
2024/01/24 06:14:03;;;;;;;39.00;7.05;;;;;;;;;;4964001;29;20031;-61
2024/01/24 06:16:29;;;;;;;40.55;7.07;;;;;;;;;;4966797;29;20043;-60
2024/01/24 06:18:54;;;;;;;56.97;7.53;;;;;;;;;;4942367;29;20047;-60
2024/01/24 06:21:20;;;;;;;47.35;7.25;;;;;;;;;;4962551;29;20051;-59
2024/01/24 06:23:45;;;;;;;49.15;7.72;;;;;;;;;;4959674;29;20028;-61
2024/01/24 06:26:11;;;;;;;57.60;7.83;;;;;;;;;;4966398;29;20032;-61
2024/01/24 06:28:36;;;;;;;35.88;7.50;;;;;;;;;;4961394;29;20039;-60
2024/01/24 06:31:02;;;;;;;44.17;7.03;;;;;;;;;;4959320;29;20075;-60
2024/01/24 06:33:28;;;;;;;39.92;7.88;;;;;;;;;;4959944;29;20059;-60
2024/01/24 06:35:54;;;;;;;47.50;6.63;;;;;;;;;;4946471;29;20039;-60
2024/01/24 06:38:19;;;;;;;41.97;7.57;;;;;;;;;;4958486;29;20035;-61
2024/01/24 06:40:45;;;;;;;39.80;8.88;;;;;;;;;;4958247;29;20038;-60
2024/01/24 06:43:12;;;;;;;53.17;7.40;;;;;;;;;;4958384;29;20100;-60
2024/01/24 06:45:38;;;;;;;41.30;6.57;;;;;;;;;;4970594;29;20050;-60
2024/01/24 06:48:03;;;;;;;53.23;7.73;;;;;;;;;;4959436;29;20281;-59
2024/01/24 06:50:29;;;;;;;48.07;8.10;;;;;;;;;;4968941;29;20277;-61
2024/01/24 06:52:54;;;;;;;64.03;10.32;;;;;;;;;;4961321;29;20035;-61
2024/01/24 06:55:20;;;;;;;63.35;8.60;;;;;;;;;;4967796;29;20042;-60
2024/01/24 06:57:45;;;;;;;49.30;8.30;;;;;;;;;;4957875;29;20038;-61
2024/01/24 07:00:11;;;;;;;37.00;6.63;;;;;;;;;;4961015;29;20031;-61
2024/01/24 07:02:36;;;;;;;40.97;7.30;;;;;;;;;;4960051;28;20258;-60
2024/01/24 07:05:03;;;;;;;59.03;8.77;;;;;;;;;;4963251;29;20285;-60
2024/01/24 07:07:28;;;;;;;54.72;8.35;;;;;;;;;;4957584;29;20269;-63
2024/01/24 07:09:54;;;;;;;47.33;9.23;;;;;;;;;;4957807;29;20047;-60
2024/01/24 07:12:22;;;;;;;47.67;7.40;;;;;;;;;;4969558;29;20063;-59
2024/01/24 07:14:48;;;;;;;44.70;9.33;;;;;;;;;;4961209;29;20035;-62
2024/01/24 07:17:14;;;;;;;41.13;8.30;;;;;;;;;;4964610;29;20313;-60
2024/01/24 07:19:40;;;;;;;50.80;8.57;;;;;;;;;;4957873;29;20270;-60
2024/01/24 07:22:05;;;;;;;57.63;9.37;;;;;;;;;;4967075;29;20074;-61
2024/01/24 07:24:31;;;;;;;61.03;8.60;;;;;;;;;;4962114;29;20037;-60
2024/01/24 07:26:57;;;;;;;57.88;9.93;;;;;;;;;;4961909;29;20059;-60
2024/01/24 07:29:23;;;;;;;54.90;7.40;;;;;;;;;;4957937;29;20049;-60
2024/01/24 07:31:48;;;;;;;43.45;8.65;;;;;;;;;;4962443;29;20039;-59
2024/01/24 07:34:15;;;;;;;46.37;8.67;;;;;;;;;;4963926;29;20035;-62
2024/01/24 07:36:40;;;;;;;49.58;8.00;;;;;;;;;;4966575;29;20250;-61
2024/01/24 07:39:06;;;;;;;68.87;9.87;;;;;;;;;;4957771;29;20060;-60
2024/01/24 07:41:32;;;;;;;;;;;;;;;;;;4960725;29;20099;-60
2024/01/24 07:43:57;;;;;;;53.30;8.87;;;;;;;;;;4961770;29;19910;-60
2024/01/24 07:46:24;;;;;;;56.08;11.38;;;;;;;;;;4957296;29;20031;-61
2024/01/24 07:48:49;;;;;;;;;;;;;;;;;;4957548;29;20051;-61
2024/01/24 07:51:15;;;;;;;44.67;8.17;;;;;;;;;;4939980;29;19911;-61
2024/01/24 07:53:42;;;;;;;51.30;9.32;;;;;;;;;;4955872;29;20040;-61
2024/01/24 07:56:08;;;;;;;60.20;9.70;;;;;;;;;;4955293;29;20035;-62
2024/01/24 07:58:33;;;;;;;44.00;7.83;;;;;;;;;;4955912;29;20330;-61
2024/01/24 08:00:58;;;;;;;49.30;8.17;;;;;;;;;;4955795;29;20310;-62
2024/01/24 08:03:24;;;;;;;36.27;7.73;;;;;;;;;;4960725;29;20087;-62
2024/01/24 08:05:49;;;;;;;52.00;8.40;;;;;;;;;;4957030;29;20047;-61
2024/01/24 08:08:15;;;;;;;45.10;8.38;;;;;;;;;;4956458;29;20023;-60
2024/01/24 08:10:41;;;;;;;45.43;7.47;;;;;;;;;;4956200;29;20035;-62
2024/01/24 08:13:06;;;;;;;46.35;8.70;;;;;;;;;;4963107;29;20095;-61
2024/01/24 08:15:32;;;;;;;56.50;10.83;;;;;;;;;;4956350;29;20035;-61
2024/01/24 08:17:57;;;;;;;48.57;6.87;;;;;;;;;;4956397;29;20047;-61
2024/01/24 08:20:23;;;;;;;39.03;7.13;;;;;;;;;;4956410;29;20031;-61
2024/01/24 08:22:49;;;;;;;51.92;9.18;;;;;;;;;;4956807;29;20045;-61
2024/01/24 08:25:15;;;;;;;39.00;7.10;;;;;;;;;;4956363;29;20031;-61
2024/01/24 08:27:40;;;;;;;44.35;7.15;;;;;;;;;;4960215;29;20036;-61
2024/01/24 08:30:06;;;;;;;58.80;7.97;;;;;;;;;;4956098;29;20095;-62
2024/01/24 08:32:31;;;;;;;38.95;6.80;;;;;;;;;;4955473;29;20036;-63
2024/01/24 08:34:57;;;;;;;43.00;8.13;;;;;;;;;;4956314;29;20070;-61
2024/01/24 08:37:23;;;;;;;40.22;7.00;;;;;;;;;;4962648;29;20190;-61
2024/01/24 08:39:49;;;;;;;46.50;7.70;;;;;;;;;;4956388;29;20051;-60
2024/01/24 08:42:14;;;;;;;37.22;7.20;;;;;;;;;;4955612;29;20266;-60
2024/01/24 08:44:40;;;;;;;57.37;8.90;;;;;;;;;;4957396;29;20039;-61
2024/01/24 08:47:05;;;;;;;44.87;8.77;;;;;;;;;;4956527;29;20293;-61
2024/01/24 08:49:31;;;;;;;48.28;7.65;;;;;;;;;;4954654;29;20023;-61
2024/01/24 08:51:57;;;;;;;50.63;7.53;;;;;;;;;;4965631;29;20035;-61
2024/01/24 08:54:23;;;;;;;57.70;8.23;;;;;;;;;;4959475;29;20028;-60
2024/01/24 08:56:48;;;;;;;49.95;8.48;;;;;;;;;;4965042;29;20111;-61
2024/01/24 08:59:14;;;;;;;33.13;6.80;;;;;;;;;;4945926;29;20056;-61
2024/01/24 09:01:39;;;;;;;50.50;6.97;;;;;;;;;;4955522;29;20032;-61
2024/01/24 09:04:05;;;;;;;48.20;6.87;;;;;;;;;;4960391;29;20042;-61
2024/01/24 09:06:30;;;;;;;48.60;8.57;;;;;;;;;;4961388;29;20046;-62
2024/01/24 09:08:56;;;;;;;47.33;6.90;;;;;;;;;;4956429;29;20052;-62
2024/01/24 09:11:22;;;;;;;34.20;6.03;;;;;;;;;;4956221;29;20067;-63
2024/01/24 09:13:47;;;;;;;45.85;7.65;;;;;;;;;;4958168;29;20055;-61
2024/01/24 09:16:14;;;;;;;57.15;8.98;;;;;;;;;;4958304;29;20035;-61
2024/01/24 09:18:40;;;;;;;49.95;7.32;;;;;;;;;;4955759;29;20042;-62
2024/01/24 09:21:05;;;;;;;45.22;7.55;;;;;;;;;;4956118;29;20023;-61
2024/01/24 09:23:32;;;;;;;52.40;8.43;;;;;;;;;;4955388;29;20039;-62
2024/01/24 09:25:58;;;;;;;43.30;8.67;;;;;;;;;;4959277;29;20034;-61
2024/01/24 09:28:23;;;;;;;45.97;6.77;;;;;;;;;;4952516;29;20329;-61
2024/01/24 09:30:49;;;;;;;38.40;7.10;;;;;;;;;;4959510;29;20100;-61
2024/01/24 09:33:15;;;;;;;39.67;7.43;;;;;;;;;;4955524;29;20032;-62
2024/01/24 09:35:41;;;;;;;47.03;8.23;;;;;;;;;;4962340;28;20050;-60
2024/01/24 09:38:06;;;;;;;36.50;8.03;;;;;;;;;;4955896;29;20044;-60
2024/01/24 09:40:32;;;;;;;50.72;9.27;;;;;;;;;;4955829;29;20016;-61
2024/01/24 09:43:00;;;;;;;40.28;8.48;;;;;;;;;;4967915;29;20031;-61
2024/01/24 09:45:27;;;;;;;43.23;7.60;;;;;;;;;;4966172;29;20028;-62
2024/01/24 09:47:54;;;;;;;45.30;8.33;;;;;;;;;;4961366;29;20724;-62
2024/01/24 09:50:20;;;;;;;46.57;9.33;;;;;;;;;;4958922;29;20273;-61
2024/01/24 09:52:46;;;;;;;48.45;7.60;;;;;;;;;;4959106;29;20278;-61
2024/01/24 09:55:13;;;;;;;42.70;9.37;;;;;;;;;;4962494;29;20042;-62
2024/01/24 09:57:39;;;;;;;37.57;7.63;;;;;;;;;;4965203;29;20039;-62
2024/01/24 10:00:05;;;;;;;51.28;7.78;;;;;;;;;;4964873;29;20261;-61
2024/01/24 10:02:30;;;;;;;53.53;8.35;;;;;;;;;;4961063;29;20032;-60
2024/01/24 10:04:58;;;;;;;52.10;8.27;;;;;;;;;;4958922;29;20051;-61
2024/01/24 10:07:23;;;;;;;;;;;;;;;;;;4959502;29;20042;-60
2024/01/24 10:10:03;;;;;;;58.07;8.57;;;;;;;;;;4935002;29;19910;-60
2024/01/24 10:12:30;;;;;;;49.50;10.00;;;;;;;;;;4964028;29;20059;-60
2024/01/24 10:14:56;;;;;;;43.50;7.77;;;;;;;;;;4960820;29;20031;-60
2024/01/24 10:17:21;;;;;;;41.67;7.30;;;;;;;;;;4957494;29;20055;-61
2024/01/24 10:19:47;;;;;;;45.63;8.70;;;;;;;;;;4958673;29;20042;-61
2024/01/24 10:22:12;;;;;;;41.70;7.75;;;;;;;;;;4958112;29;20042;-60
2024/01/24 10:24:38;;;;;;;44.47;7.47;;;;;;;;;;4959821;29;20253;-61
2024/01/24 10:27:04;;;;;;;35.63;6.95;;;;;;;;;;4958890;29;20039;-60
2024/01/24 10:29:30;;;;;;;38.90;6.97;;;;;;;;;;4941578;29;20036;-59
2024/01/24 10:31:56;;;;;;;45.67;6.65;;;;;;;;;;4958278;29;20031;-60
2024/01/24 10:34:25;;;;;;;37.72;6.95;;;;;;;;;;4960154;29;20023;-60
2024/01/24 10:36:52;;;;;;;44.07;8.23;;;;;;;;;;4967196;29;20027;-61
2024/01/24 10:39:18;;;;;;;41.67;7.18;;;;;;;;;;4964514;29;20058;-60
2024/01/24 10:41:47;;;;;;;42.30;6.93;;;;;;;;;;4960778;29;20058;-61
2024/01/24 10:44:16;;;;;;;38.77;8.63;;;;;;;;;;4965733;29;20036;-61
2024/01/24 10:46:42;;;;;;;42.80;7.57;;;;;;;;;;4953797;29;20035;-61
2024/01/24 10:49:15;;;;;;;51.53;8.43;;;;;;;;;;4943956;29;20043;-60
2024/01/24 10:51:43;;;;;;;47.70;7.93;;;;;;;;;;4958020;29;20092;-61
2024/01/24 10:54:09;;;;;;;35.47;6.53;;;;;;;;;;4959502;29;20032;-61
2024/01/24 10:56:35;;;;;;;40.40;6.80;;;;;;;;;;4957407;29;20130;-61
2024/01/24 10:59:03;;;;;;;44.83;8.10;;;;;;;;;;4958301;29;20123;-60
2024/01/24 11:01:28;;;;;;;55.20;8.37;;;;;;;;;;4957847;29;20127;-61
2024/01/24 11:03:55;;;;;;;44.90;7.18;;;;;;;;;;4959870;29;20085;-61
2024/01/24 11:06:22;;;;;;;29.02;4.95;;;;;;;;;;4957941;29;20042;-61
2024/01/24 11:09:01;;;;;;;40.00;8.33;;;;;;;;;;4965367;29;20032;-61
2024/01/24 11:11:29;;;;;;;41.13;7.70;;;;;;;;;;4958042;29;20028;-61
2024/01/24 11:13:57;;;;;;;49.80;8.07;;;;;;;;;;4949191;29;20067;-61
2024/01/24 11:16:25;;;;;;;43.37;7.37;;;;;;;;;;4962310;29;20091;-61
2024/01/24 11:18:51;;;;;;;48.17;6.63;;;;;;;;;;4960752;29;20028;-62
2024/01/24 11:21:20;;;;;;;41.13;6.65;;;;;;;;;;4957544;29;20039;-61
2024/01/24 11:23:47;;;;;;;47.67;7.30;;;;;;;;;;4956763;29;20087;-60
2024/01/24 11:26:32;;;;;;;39.63;6.82;;;;;;;;;;4963534;29;20024;-61
2024/01/24 11:29:10;;;;;;;46.53;6.73;;;;;;;;;;4950747;29;20114;-62
2024/01/24 11:31:39;;;;;;;44.37;7.37;;;;;;;;;;4957570;29;20032;-64
2024/01/24 11:34:08;;;;;;;38.80;7.07;;;;;;;;;;4957767;29;20114;-61
2024/01/24 11:36:39;;;;;;;48.43;7.77;;;;;;;;;;4964604;28;20277;-63
2024/01/24 11:39:24;;;;;;;32.83;7.30;;;;;;;;;;4956872;29;20070;-62
2024/01/24 11:41:50;;;;;;;40.30;6.20;;;;;;;;;;4956597;29;20027;-61
2024/01/24 11:44:18;;;;;;;52.22;7.50;;;;;;;;;;4957575;29;20028;-62
2024/01/24 11:46:43;;;;;;;45.03;6.93;;;;;;;;;;4956770;29;20055;-62
2024/01/24 11:49:09;;;;;;;39.22;7.00;;;;;;;;;;4959794;29;20042;-63
2024/01/24 11:51:35;;;;;;;44.95;7.22;;;;;;;;;;4956927;29;20054;-62
2024/01/24 11:54:00;;;;;;;35.70;6.47;;;;;;;;;;4958203;29;20052;-62
2024/01/24 11:56:26;;;;;;;45.65;6.63;;;;;;;;;;4959991;29;20047;-61
2024/01/24 11:58:51;;;;;;;34.77;6.77;;;;;;;;;;4957921;29;20067;-60
2024/01/24 12:01:17;;;;;;;35.13;7.25;;;;;;;;;;4956554;29;20043;-61
2024/01/24 12:03:46;;;;;;;33.50;6.60;;;;;;;;;;4956342;29;20027;-62
2024/01/24 12:06:12;;;;;;;37.90;7.30;;;;;;;;;;4942616;29;20030;-62
2024/01/24 12:08:37;;;;;;;32.35;6.20;;;;;;;;;;4960580;29;20035;-61
2024/01/24 12:11:04;;;;;;;39.00;7.35;;;;;;;;;;4957074;29;20059;-62
2024/01/24 12:13:29;;;;;;;32.95;6.38;;;;;;;;;;4956400;29;20039;-61
2024/01/24 12:15:55;;;;;;;31.93;5.53;;;;;;;;;;4962835;29;20060;-61
2024/01/24 12:18:22;;;;;;;38.53;6.33;;;;;;;;;;4957092;29;20027;-60
2024/01/24 12:20:48;;;;;;;37.90;8.20;;;;;;;;;;4962742;29;20035;-62
2024/01/24 12:23:14;;;;;;;37.57;6.60;;;;;;;;;;4956996;29;20051;-61
2024/01/24 12:25:41;;;;;;;40.05;6.60;;;;;;;;;;4959685;29;20031;-61
2024/01/24 12:28:06;;;;;;;32.03;5.75;;;;;;;;;;4956928;29;20034;-60
2024/01/24 12:30:35;;;;;;;30.90;6.10;;;;;;;;;;4959076;29;20058;-61
2024/01/24 12:33:01;;;;;;;36.57;5.97;;;;;;;;;;4956132;29;20089;-60
2024/01/24 12:35:27;;;;;;;33.95;5.40;;;;;;;;;;4956216;29;20274;-61
2024/01/24 12:37:56;;;;;;;37.07;6.90;;;;;;;;;;4955783;29;20036;-61
2024/01/24 12:40:21;;;;;;;34.10;7.07;;;;;;;;;;4953521;29;20263;-61
2024/01/24 12:42:46;;;;;;;40.40;6.53;;;;;;;;;;4955719;29;20273;-61
2024/01/24 12:45:13;;;;;;;31.23;6.40;;;;;;;;;;4957754;29;20036;-61
2024/01/24 12:47:39;;;;;;;34.20;6.57;;;;;;;;;;4958494;29;20242;-61
2024/01/24 12:50:05;;;;;;;46.35;6.80;;;;;;;;;;4959111;29;20032;-61
2024/01/24 12:52:30;;;;;;;32.97;6.40;;;;;;;;;;4956085;29;20040;-61
2024/01/24 12:54:56;;;;;;;31.30;5.33;;;;;;;;;;4955485;29;20038;-60
2024/01/24 12:57:23;;;;;;;32.65;6.10;;;;;;;;;;4959612;29;20914;-61
2024/01/24 12:59:49;;;;;;;27.53;6.17;;;;;;;;;;4956347;29;20123;-60
2024/01/24 13:02:15;;;;;;;40.22;8.15;;;;;;;;;;4956238;29;20277;-60
2024/01/24 13:04:43;;;;;;;44.77;6.53;;;;;;;;;;4955825;29;20197;-60
2024/01/24 13:07:09;;;;;;;33.93;5.20;;;;;;;;;;4956872;29;20278;-63
2024/01/24 13:09:35;;;;;;;35.63;6.40;;;;;;;;;;4965776;29;20268;-62
2024/01/24 13:12:01;;;;;;;37.63;7.17;;;;;;;;;;4956821;29;20032;-61
2024/01/24 13:14:26;;;;;;;52.33;7.05;;;;;;;;;;4955829;29;20028;-60
2024/01/24 13:16:52;;;;;;;40.00;7.95;;;;;;;;;;4960151;29;20032;-60
2024/01/24 13:19:17;;;;;;;35.70;5.78;;;;;;;;;;4961734;29;20103;-61
2024/01/24 13:21:43;;;;;;;35.40;5.97;;;;;;;;;;4960090;29;20039;-61
2024/01/24 13:24:09;;;;;;;25.97;5.73;;;;;;;;;;4962802;29;20102;-61
2024/01/24 13:26:34;;;;;;;45.00;6.67;;;;;;;;;;4967632;29;20274;-62
2024/01/24 13:28:59;;;;;;;36.60;6.10;;;;;;;;;;4960853;29;20048;-62
2024/01/24 13:31:25;;;;;;;35.92;7.28;;;;;;;;;;4960595;29;20024;-62
2024/01/24 13:33:51;;;;;;;44.87;6.40;;;;;;;;;;4959573;29;20036;-62
2024/01/24 13:36:17;;;;;;;39.53;6.35;;;;;;;;;;4958802;29;20274;-61
2024/01/24 13:38:43;;;;;;;32.10;6.20;;;;;;;;;;4959029;29;20042;-63
2024/01/24 13:41:10;;;;;;;31.92;5.72;;;;;;;;;;4960894;29;20063;-61
2024/01/24 13:43:36;;;;;;;27.07;5.73;;;;;;;;;;4960125;29;20043;-61
2024/01/24 13:46:02;;;;;;;30.83;5.37;;;;;;;;;;4961124;29;20277;-61
2024/01/24 13:48:28;;;;;;;;;;;;;;;;;;4953299;29;20103;-61
2024/01/24 13:50:53;;;;;;;31.57;5.63;;;;;;;;;;4959294;29;19947;-61
2024/01/24 13:53:19;;;;;;;34.05;6.75;;;;;;;;;;4954632;29;20055;-61
2024/01/24 13:55:45;;;;;;;36.43;6.67;;;;;;;;;;4954991;29;20043;-60
2024/01/24 13:58:10;;;;;;;31.00;5.22;;;;;;;;;;4960594;29;20282;-60
2024/01/24 14:00:35;;;;;;;37.10;6.03;;;;;;;;;;4966318;29;20039;-63
2024/01/24 14:03:01;;;;;;;27.33;5.97;;;;;;;;;;4959433;29;20023;-58
2024/01/24 14:05:26;;;;;;;50.73;7.00;;;;;;;;;;4942592;29;20036;-61
2024/01/24 14:07:52;;;;;;;33.88;5.75;;;;;;;;;;4958613;29;20027;-62
2024/01/24 14:10:18;;;;;;;39.40;6.80;;;;;;;;;;4964546;29;20050;-62
2024/01/24 14:12:44;;;;;;;34.53;5.03;;;;;;;;;;4962316;29;20035;-60
2024/01/24 14:15:09;;;;;;;30.75;5.30;;;;;;;;;;4954598;29;20372;-62
2024/01/24 14:17:35;;;;;;;40.60;6.38;;;;;;;;;;4945022;29;20031;-61
2024/01/24 14:20:00;;;;;;;27.93;5.43;;;;;;;;;;4974803;28;20023;-61
2024/01/24 14:22:26;;;;;;;49.90;6.82;;;;;;;;;;4942612;29;20601;-61
2024/01/24 14:24:52;;;;;;;28.73;5.80;;;;;;;;;;4958716;29;20036;-61
2024/01/24 14:27:21;;;;;;;30.42;5.82;;;;;;;;;;4958137;29;20039;-61
2024/01/24 14:29:47;;;;;;;44.80;9.37;;;;;;;;;;4965096;29;20028;-62